Time;durP1;ratioP1;P1;durP2;ratioP2;P2;SDS_P1;SDS_P2;PMS_P1;PMS_P2;Temp;Humidity;BMP_temperature;BMP_pressure;BME280_temperature;BME280_humidity;BME280_pressure;Samples;Min_cycle;Max_cycle;Signal;HPM_P1;HPM_P2
2023/09/15 00:00:11;;;;;;;6.18;2.45;;;20.20;99.90;;;;;;5012681;28;20014;-75
2023/09/15 00:02:37;;;;;;;6.05;2.63;;;20.20;99.70;;;;;;5013154;28;20030;-74
2023/09/15 00:05:04;;;;;;;4.88;2.75;;;20.20;99.50;;;;;;5013158;28;20026;-75
2023/09/15 00:07:31;;;;;;;10.55;2.70;;;20.20;99.60;;;;;;5013128;28;20425;-75
2023/09/15 00:09:58;;;;;;;4.20;2.70;;;20.20;99.90;;;;;;5013276;28;20033;-75
2023/09/15 00:12:24;;;;;;;5.80;2.70;;;20.20;99.90;;;;;;5013000;28;20062;-74
2023/09/15 00:14:50;;;;;;;4.30;3.00;;;20.20;99.90;;;;;;5013043;28;20030;-75
2023/09/15 00:17:15;;;;;;;5.07;2.97;;;20.20;99.90;;;;;;5013144;28;20022;-76
2023/09/15 00:19:41;;;;;;;4.40;2.80;;;20.20;99.90;;;;;;5013094;28;20101;-75
2023/09/15 00:22:07;;;;;;;4.55;2.88;;;20.10;99.90;;;;;;5012874;28;20081;-76
2023/09/15 00:24:35;;;;;;;7.10;2.80;;;20.10;99.90;;;;;;5012965;28;20085;-75
2023/09/15 00:27:01;;;;;;;6.03;3.25;;;20.10;99.90;;;;;;5012982;28;20053;-75
2023/09/15 00:29:27;;;;;;;4.85;3.15;;;20.10;99.90;;;;;;5013067;28;20505;-75
2023/09/15 00:31:55;;;;;;;7.65;3.55;;;20.10;99.90;;;;;;5013012;28;20032;-75
2023/09/15 00:34:20;;;;;;;4.88;2.78;;;20.10;99.90;;;;;;5012914;28;20026;-75
2023/09/15 00:36:49;;;;;;;4.15;2.88;;;20.10;99.80;;;;;;5012675;28;20497;-74
2023/09/15 00:39:15;;;;;;;8.93;3.35;;;20.10;99.90;;;;;;5012811;28;20065;-74
2023/09/15 00:41:40;;;;;;;6.63;3.22;;;20.10;99.90;;;;;;5012716;28;20038;-75
2023/09/15 00:44:06;;;;;;;4.38;2.83;;;20.10;99.90;;;;;;5012808;28;20026;-75
2023/09/15 00:46:32;;;;;;;4.97;2.83;;;20.10;99.90;;;;;;5012819;28;20033;-75
2023/09/15 00:48:59;;;;;;;5.38;2.95;;;20.20;99.80;;;;;;5012859;28;20072;-76
2023/09/15 00:51:25;;;;;;;4.13;2.63;;;20.10;99.70;;;;;;5011543;28;20112;-75
2023/09/15 00:53:54;;;;;;;8.65;3.40;;;20.10;99.60;;;;;;5012675;28;20018;-75
2023/09/15 00:56:20;;;;;;;5.63;3.15;;;20.10;99.70;;;;;;5012821;28;20045;-75
2023/09/15 00:58:46;;;;;;;6.20;2.80;;;20.10;99.40;;;;;;5010804;28;20026;-75
2023/09/15 01:01:13;;;;;;;7.57;2.90;;;20.10;99.50;;;;;;5009850;28;20081;-75
2023/09/15 01:03:43;;;;;;;4.93;3.22;;;20.10;99.50;;;;;;5009561;28;20116;-75
2023/09/15 01:06:11;;;;;;;3.92;2.92;;;20.10;99.50;;;;;;5012307;28;20022;-75
2023/09/15 01:08:38;;;;;;;5.28;3.88;;;20.10;99.50;;;;;;5012889;28;20018;-75
2023/09/15 01:11:05;;;;;;;5.78;3.10;;;20.10;99.40;;;;;;5013026;28;20050;-75
2023/09/15 01:13:35;;;;;;;4.15;3.30;;;20.10;99.70;;;;;;5016138;28;20029;-75
2023/09/15 01:16:15;;;;;;;6.55;3.13;;;20.10;99.30;;;;;;5016117;28;20141;-74
2023/09/15 01:18:56;;;;;;;3.65;3.30;;;20.10;99.30;;;;;;5014836;28;20021;-75
2023/09/15 01:21:31;;;;;;;4.07;3.08;;;20.10;99.30;;;;;;5015753;28;20034;-75
2023/09/15 01:24:21;;;;;;;5.60;3.22;;;20.10;99.50;;;;;;5015888;28;20028;-74
2023/09/15 01:27:08;;;;;;;6.60;3.22;;;20.10;99.40;;;;;;5016253;28;20033;-74
2023/09/15 01:29:54;;;;;;;4.47;3.17;;;20.10;99.20;;;;;;5016056;28;20038;-74
2023/09/15 01:32:21;;;;;;;6.90;3.10;;;20.10;99.00;;;;;;5014801;28;20026;-75
2023/09/15 01:34:51;;;;;;;7.38;3.40;;;20.10;98.80;;;;;;5015989;28;20025;-74
2023/09/15 01:37:19;;;;;;;6.38;3.30;;;20.10;98.80;;;;;;5015584;28;20025;-75
2023/09/15 01:39:44;;;;;;;12.02;3.70;;;20.10;98.70;;;;;;5015720;28;20031;-75
2023/09/15 01:42:10;;;;;;;6.57;3.10;;;20.10;98.70;;;;;;5015943;28;20496;-75
2023/09/15 01:44:36;;;;;;;9.10;3.35;;;20.10;98.70;;;;;;5015472;28;20076;-75
2023/09/15 01:47:02;;;;;;;5.55;3.40;;;20.10;98.70;;;;;;5015670;28;20556;-75
2023/09/15 01:49:29;;;;;;;3.60;3.30;;;20.10;98.80;;;;;;5015972;28;20429;-75
2023/09/15 01:51:56;;;;;;;6.20;3.45;;;20.00;98.80;;;;;;5015853;28;20088;-74
2023/09/15 01:54:22;;;;;;;4.10;3.20;;;20.10;98.90;;;;;;5015647;28;20486;-75
2023/09/15 01:56:49;;;;;;;7.35;3.78;;;20.10;98.90;;;;;;5015535;28;20083;-75
2023/09/15 01:59:15;;;;;;;4.15;3.28;;;20.10;99.00;;;;;;5015457;28;20025;-75
2023/09/15 02:01:41;;;;;;;5.72;3.35;;;20.10;98.80;;;;;;5015326;28;20650;-77
2023/09/15 02:04:08;;;;;;;5.03;3.40;;;20.10;98.70;;;;;;5015268;28;20026;-74
2023/09/15 02:06:33;;;;;;;8.73;3.45;;;20.10;98.60;;;;;;5015070;28;20406;-74
2023/09/15 02:08:59;;;;;;;6.43;3.20;;;20.10;98.50;;;;;;5015302;28;20026;-74
2023/09/15 02:11:25;;;;;;;5.85;3.72;;;20.10;98.50;;;;;;5015124;28;20375;-78
2023/09/15 02:13:51;;;;;;;5.70;3.47;;;20.10;98.40;;;;;;5014841;28;20033;-75
2023/09/15 02:16:16;;;;;;;4.07;3.55;;;20.10;98.30;;;;;;5015049;28;20058;-75
2023/09/15 02:18:43;;;;;;;5.70;3.25;;;20.10;98.20;;;;;;5015367;28;20482;-75
2023/09/15 02:21:08;;;;;;;3.42;3.13;;;20.10;98.40;;;;;;5015203;28;20102;-74
2023/09/15 02:23:34;;;;;;;3.50;3.20;;;20.10;98.50;;;;;;5013502;28;20053;-75
2023/09/15 02:26:04;;;;;;;4.32;3.30;;;20.00;98.50;;;;;;5014872;28;20053;-75
2023/09/15 02:28:30;;;;;;;6.18;3.47;;;20.00;98.40;;;;;;5014840;28;20022;-74
2023/09/15 02:30:56;;;;;;;12.45;3.67;;;20.00;98.40;;;;;;5014873;28;20030;-75
2023/09/15 02:33:22;;;;;;;3.85;3.35;;;20.00;98.30;;;;;;5014520;28;20030;-74
2023/09/15 02:35:49;;;;;;;5.35;3.65;;;20.00;98.30;;;;;;5014600;28;20053;-75
2023/09/15 02:38:15;;;;;;;9.07;3.60;;;20.00;98.30;;;;;;5014658;28;20486;-75
2023/09/15 02:40:40;;;;;;;13.85;3.70;;;20.00;98.30;;;;;;5014700;28;20378;-74
2023/09/15 02:43:08;;;;;;;5.13;3.53;;;20.00;98.30;;;;;;5014568;28;20018;-75
2023/09/15 02:45:38;;;;;;;5.40;3.25;;;20.00;98.20;;;;;;5014572;28;20117;-75
2023/09/15 02:48:04;;;;;;;4.00;3.50;;;20.00;98.30;;;;;;5014349;28;20021;-75
2023/09/15 02:50:31;;;;;;;6.00;3.60;;;20.00;98.40;;;;;;5014411;28;20029;-75
2023/09/15 02:52:58;;;;;;;3.70;3.17;;;20.00;98.40;;;;;;5014716;28;20377;-75
2023/09/15 02:55:23;;;;;;;7.47;3.45;;;20.00;98.30;;;;;;5014567;28;20049;-74
2023/09/15 02:57:53;;;;;;;5.88;3.33;;;20.00;98.30;;;;;;5013011;28;20030;-75
2023/09/15 03:00:20;;;;;;;5.22;3.60;;;20.00;98.40;;;;;;5014285;28;20026;-74
2023/09/15 03:02:48;;;;;;;5.68;3.20;;;20.00;98.20;;;;;;5014415;28;20054;-74
2023/09/15 03:05:14;;;;;;;3.88;3.30;;;20.00;98.10;;;;;;5014087;28;20037;-74
2023/09/15 03:07:41;;;;;;;3.97;3.13;;;20.00;97.90;;;;;;5014194;28;20025;-74
2023/09/15 03:10:07;;;;;;;4.15;3.20;;;20.00;98.10;;;;;;5014085;28;20033;-74
2023/09/15 03:12:33;;;;;;;4.00;3.30;;;20.00;97.90;;;;;;5014020;28;20141;-75
2023/09/15 03:15:04;;;;;;;5.68;3.20;;;20.00;97.70;;;;;;5014179;28;20092;-77
2023/09/15 03:17:30;;;;;;;4.57;3.53;;;20.00;97.70;;;;;;5012849;28;20026;-74
2023/09/15 03:19:56;;;;;;;4.50;3.47;;;20.00;97.40;;;;;;5014033;28;20480;-75
2023/09/15 03:22:21;;;;;;;4.47;3.60;;;20.00;97.30;;;;;;5013909;28;20049;-75
2023/09/15 03:24:47;;;;;;;5.72;3.28;;;20.00;97.10;;;;;;5013999;28;20053;-75
2023/09/15 03:27:13;;;;;;;4.32;3.08;;;20.10;97.00;;;;;;5014011;28;20058;-74
2023/09/15 03:29:38;;;;;;;4.13;3.72;;;20.00;96.90;;;;;;5014003;28;20022;-74
2023/09/15 03:32:04;;;;;;;3.55;3.25;;;20.00;97.00;;;;;;5012346;28;20029;-77
2023/09/15 03:34:30;;;;;;;9.07;3.40;;;20.00;97.10;;;;;;5013252;28;20097;-76
2023/09/15 03:36:56;;;;;;;6.05;3.83;;;20.00;97.10;;;;;;5013446;28;20076;-77
2023/09/15 03:39:22;;;;;;;11.48;3.30;;;20.00;97.20;;;;;;5013643;28;20101;-75
2023/09/15 03:41:48;;;;;;;3.95;3.47;;;20.00;97.20;;;;;;5013476;28;20076;-74
2023/09/15 03:44:13;;;;;;;3.78;3.30;;;20.00;97.10;;;;;;5013660;28;20014;-75
2023/09/15 03:46:39;;;;;;;6.45;3.42;;;20.00;97.00;;;;;;5013552;28;20033;-75
2023/09/15 03:49:05;;;;;;;6.15;3.50;;;20.00;96.90;;;;;;5013414;28;20022;-75
2023/09/15 03:51:31;;;;;;;6.97;3.30;;;20.00;96.90;;;;;;5013438;28;20018;-75
2023/09/15 03:53:57;;;;;;;4.40;3.10;;;20.00;96.80;;;;;;5013235;28;20033;-75
2023/09/15 03:56:24;;;;;;;3.92;3.45;;;20.00;96.80;;;;;;5013466;28;20123;-74
2023/09/15 03:58:51;;;;;;;4.82;3.58;;;20.00;96.80;;;;;;5013294;28;20557;-75
2023/09/15 04:01:21;;;;;;;5.28;3.30;;;20.00;96.80;;;;;;5012101;28;20053;-76
2023/09/15 04:03:46;;;;;;;3.95;3.22;;;20.00;96.70;;;;;;5013336;28;20026;-75
2023/09/15 04:06:12;;;;;;;3.60;3.30;;;20.00;96.80;;;;;;5013314;28;20542;-74
2023/09/15 04:08:38;;;;;;;6.47;3.40;;;19.90;96.70;;;;;;5013338;28;20026;-74
2023/09/15 04:11:04;;;;;;;5.55;3.92;;;20.00;96.70;;;;;;5028301;28;20054;-74
2023/09/15 04:13:29;;;;;;;5.32;3.95;;;20.00;96.70;;;;;;5014354;28;20030;-74
2023/09/15 04:15:56;;;;;;;4.85;3.60;;;20.00;96.70;;;;;;5013090;28;20033;-75
2023/09/15 04:18:22;;;;;;;4.88;3.45;;;19.90;96.60;;;;;;5012938;28;20021;-75
2023/09/15 04:20:51;;;;;;;6.53;3.38;;;20.00;96.40;;;;;;5012688;28;20037;-75
2023/09/15 04:23:17;;;;;;;3.42;3.13;;;20.00;96.30;;;;;;5012764;28;20022;-74
2023/09/15 04:25:43;;;;;;;6.05;4.32;;;20.00;96.20;;;;;;5012705;28;20076;-77
2023/09/15 04:28:09;;;;;;;5.30;3.28;;;20.00;96.10;;;;;;5028313;28;20022;-76
2023/09/15 04:30:34;;;;;;;6.63;3.58;;;20.00;96.10;;;;;;5028444;28;20034;-75
2023/09/15 04:33:00;;;;;;;5.53;3.55;;;20.00;96.10;;;;;;5023437;28;20025;-75
2023/09/15 04:35:27;;;;;;;5.15;3.78;;;20.00;96.00;;;;;;5032179;28;20033;-75
2023/09/15 04:37:54;;;;;;;4.78;3.13;;;20.00;96.00;;;;;;5030904;28;20120;-75
2023/09/15 04:40:20;;;;;;;3.70;3.28;;;20.00;95.90;;;;;;5032376;28;20033;-75
2023/09/15 04:42:46;;;;;;;4.15;3.65;;;20.00;95.90;;;;;;5032899;28;20022;-75
2023/09/15 04:45:12;;;;;;;5.07;3.40;;;20.00;95.90;;;;;;5013466;28;20065;-75
2023/09/15 04:47:38;;;;;;;6.18;3.40;;;20.10;96.00;;;;;;5015781;28;20014;-74
2023/09/15 04:50:06;;;;;;;6.15;3.47;;;20.00;96.00;;;;;;5016405;28;20029;-75
2023/09/15 04:52:31;;;;;;;5.35;2.97;;;20.00;96.00;;;;;;5016836;28;20018;-75
2023/09/15 04:54:57;;;;;;;5.50;3.10;;;20.10;95.90;;;;;;5016649;28;20037;-75
2023/09/15 04:57:24;;;;;;;5.18;3.70;;;20.00;95.70;;;;;;5016520;28;20104;-75
2023/09/15 04:59:53;;;;;;;4.00;3.33;;;20.10;95.60;;;;;;5016024;28;20028;-74
2023/09/15 05:02:20;;;;;;;3.78;3.30;;;20.00;95.50;;;;;;5016462;28;20402;-74
2023/09/15 05:04:46;;;;;;;7.30;3.40;;;20.10;95.40;;;;;;5016424;28;20018;-75
2023/09/15 05:07:12;;;;;;;6.47;3.45;;;20.10;95.40;;;;;;5016508;28;20059;-75
2023/09/15 05:09:37;;;;;;;3.47;3.17;;;20.10;95.40;;;;;;5016456;28;20076;-75
2023/09/15 05:12:03;;;;;;;4.13;3.25;;;20.10;95.50;;;;;;5016012;28;20058;-75
2023/09/15 05:14:30;;;;;;;5.20;3.13;;;20.10;95.40;;;;;;5014883;28;20026;-75
2023/09/15 05:16:56;;;;;;;3.63;3.28;;;20.10;95.40;;;;;;5016236;28;20421;-74
2023/09/15 05:19:22;;;;;;;5.32;2.90;;;20.10;95.40;;;;;;5014991;28;20087;-77
2023/09/15 05:21:47;;;;;;;5.70;3.10;;;20.10;95.30;;;;;;5016415;28;20030;-74
2023/09/15 05:24:13;;;;;;;3.58;3.28;;;20.20;95.20;;;;;;5015765;28;20025;-75
2023/09/15 05:26:39;;;;;;;3.75;3.33;;;20.20;95.10;;;;;;5018642;28;20037;-72
2023/09/15 05:29:04;;;;;;;4.05;3.45;;;20.20;95.20;;;;;;5016128;28;20022;-74
2023/09/15 05:31:30;;;;;;;5.07;3.03;;;20.20;95.10;;;;;;5015330;28;20026;-74
2023/09/15 05:33:57;;;;;;;3.58;3.28;;;20.20;95.10;;;;;;5015598;28;20037;-74
2023/09/15 05:36:23;;;;;;;4.63;3.30;;;20.20;95.30;;;;;;5015601;28;20077;-73
2023/09/15 05:38:50;;;;;;;4.10;3.20;;;20.20;95.30;;;;;;5014442;28;20054;-74
2023/09/15 05:41:15;;;;;;;4.00;3.35;;;20.30;95.30;;;;;;5015326;28;20045;-73
2023/09/15 05:43:42;;;;;;;7.05;3.60;;;20.30;95.20;;;;;;5014545;28;20034;-74
2023/09/15 05:46:07;;;;;;;4.00;3.60;;;20.30;95.30;;;;;;5014248;28;20038;-73
2023/09/15 05:48:33;;;;;;;5.32;3.53;;;20.30;95.30;;;;;;5015391;28;20410;-73
2023/09/15 05:50:59;;;;;;;5.03;3.75;;;20.30;95.40;;;;;;5015503;28;20050;-74
2023/09/15 05:53:25;;;;;;;4.70;3.95;;;20.30;95.50;;;;;;5014811;28;20022;-76
2023/09/15 05:55:50;;;;;;;5.03;3.60;;;20.30;95.50;;;;;;5014171;28;20048;-74
2023/09/15 05:58:16;;;;;;;4.75;3.65;;;20.30;95.60;;;;;;5013995;28;20022;-75
2023/09/15 06:00:42;;;;;;;3.55;3.17;;;20.40;95.70;;;;;;5015157;28;20469;-75
2023/09/15 06:03:08;;;;;;;5.55;3.40;;;20.40;95.70;;;;;;5014492;28;20069;-74
2023/09/15 06:05:36;;;;;;;3.90;3.50;;;20.40;95.70;;;;;;5014753;28;20022;-74
2023/09/15 06:08:03;;;;;;;4.13;3.72;;;20.40;95.80;;;;;;5014763;28;20378;-74
2023/09/15 06:10:29;;;;;;;4.47;3.63;;;20.40;95.90;;;;;;5010937;28;20022;-74
2023/09/15 06:12:55;;;;;;;4.85;3.70;;;20.40;96.00;;;;;;5014396;28;20437;-74
2023/09/15 06:15:21;;;;;;;4.85;4.32;;;20.40;96.30;;;;;;5014503;28;20038;-75
2023/09/15 06:17:48;;;;;;;9.27;3.45;;;20.50;96.50;;;;;;5014783;28;20030;-74
2023/09/15 06:20:14;;;;;;;3.95;3.28;;;20.50;96.40;;;;;;5014552;28;20033;-75
2023/09/15 06:22:39;;;;;;;4.03;3.50;;;20.50;96.20;;;;;;5012916;28;20022;-75
2023/09/15 06:25:05;;;;;;;5.22;4.00;;;20.60;96.30;;;;;;5013929;28;20029;-76
2023/09/15 06:27:34;;;;;;;4.03;3.55;;;20.60;96.30;;;;;;5014122;28;20382;-82
2023/09/15 06:30:01;;;;;;;4.50;3.90;;;20.60;96.30;;;;;;5013593;28;20057;-81
2023/09/15 06:32:26;;;;;;;7.43;3.92;;;20.70;96.40;;;;;;5013199;28;20080;-81
2023/09/15 06:34:53;;;;;;;6.82;4.35;;;20.70;96.30;;;;;;5011195;28;20561;-75
2023/09/15 06:37:19;;;;;;;4.70;4.15;;;20.70;96.30;;;;;;5014072;28;20029;-78
2023/09/15 06:39:44;;;;;;;4.30;3.90;;;20.80;96.20;;;;;;5014223;28;20382;-77
2023/09/15 06:42:10;;;;;;;4.85;4.00;;;20.80;96.10;;;;;;5013153;28;20072;-79
2023/09/15 06:44:37;;;;;;;4.15;3.75;;;20.80;96.00;;;;;;5012865;28;20065;-79
2023/09/15 06:47:04;;;;;;;5.57;3.80;;;20.80;95.90;;;;;;5014291;28;20045;-82
2023/09/15 06:49:31;;;;;;;5.20;3.90;;;20.80;95.80;;;;;;5013660;28;20018;-79
2023/09/15 06:51:58;;;;;;;7.05;4.50;;;20.90;95.80;;;;;;5012883;28;20115;-79
2023/09/15 06:54:24;;;;;;;5.65;3.63;;;20.90;96.00;;;;;;5012191;28;20030;-76
2023/09/15 06:56:50;;;;;;;4.05;3.70;;;20.90;95.90;;;;;;5011978;28;20034;-80
2023/09/15 06:59:17;;;;;;;6.25;4.10;;;20.90;95.80;;;;;;5011927;28;20029;-81
2023/09/15 07:01:43;;;;;;;5.88;3.40;;;20.90;95.80;;;;;;5011833;28;20534;-76
2023/09/15 07:04:10;;;;;;;5.55;4.03;;;20.90;95.60;;;;;;5012058;28;20030;-79
2023/09/15 07:06:36;;;;;;;5.97;3.90;;;21.00;95.60;;;;;;5011799;28;20030;-77
2023/09/15 07:09:03;;;;;;;4.20;3.63;;;21.00;95.70;;;;;;5013012;28;20049;-80
2023/09/15 07:11:29;;;;;;;7.43;3.97;;;21.00;95.90;;;;;;5013218;28;20096;-81
2023/09/15 07:13:54;;;;;;;3.90;3.42;;;21.00;96.00;;;;;;5013401;28;20029;-81
2023/09/15 07:16:20;;;;;;;6.30;3.90;;;21.10;95.80;;;;;;5013320;28;20041;-79
2023/09/15 07:18:46;;;;;;;5.85;3.85;;;21.10;95.70;;;;;;5012259;28;20049;-80
2023/09/15 07:21:12;;;;;;;3.95;3.47;;;21.20;95.60;;;;;;5013573;28;20030;-74
2023/09/15 07:23:37;;;;;;;4.88;3.50;;;21.20;95.40;;;;;;5013514;28;20068;-81
2023/09/15 07:26:03;;;;;;;5.35;3.45;;;21.30;95.30;;;;;;5013620;28;20036;-83
2023/09/15 07:28:29;;;;;;;3.60;3.30;;;21.30;94.90;;;;;;5013179;28;20096;-74
2023/09/15 07:31:03;;;;;;;9.20;4.18;;;21.30;94.70;;;;;;5013350;28;20045;-77
2023/09/15 07:33:29;;;;;;;6.10;3.10;;;21.40;94.60;;;;;;5012816;28;20076;-77
2023/09/15 07:35:59;;;;;;;3.40;3.05;;;21.40;94.50;;;;;;5013788;28;20030;-79
2023/09/15 07:38:25;;;;;;;3.80;3.10;;;21.40;94.70;;;;;;5012305;28;20499;-80
2023/09/15 07:40:51;;;;;;;4.85;3.35;;;21.40;94.60;;;;;;5013598;28;20041;-85
2023/09/15 07:43:17;;;;;;;3.75;3.35;;;21.40;94.70;;;;;;5013633;28;20034;-83
2023/09/15 07:45:43;;;;;;;8.48;4.45;;;21.50;94.80;;;;;;5013785;28;20101;-81
2023/09/15 07:48:08;;;;;;;3.97;2.88;;;21.60;94.80;;;;;;5013592;28;20033;-80
2023/09/15 07:50:34;;;;;;;6.82;3.13;;;21.70;94.50;;;;;;5012477;28;20076;-82
2023/09/15 07:53:00;;;;;;;4.65;3.15;;;21.70;94.40;;;;;;5013576;28;20100;-79
2023/09/15 07:55:26;;;;;;;4.30;2.88;;;21.80;94.40;;;;;;5013466;28;20034;-81
2023/09/15 07:57:52;;;;;;;4.07;2.90;;;21.80;93.50;;;;;;5013560;28;20018;-82
2023/09/15 08:00:18;;;;;;;4.18;2.80;;;21.90;93.00;;;;;;5013252;28;20072;-79
2023/09/15 08:02:43;;;;;;;3.80;2.72;;;22.00;92.50;;;;;;5012178;28;20029;-81
2023/09/15 08:05:09;;;;;;;3.28;2.90;;;22.00;92.80;;;;;;5012429;28;20068;-81
2023/09/15 08:07:35;;;;;;;5.47;2.90;;;22.10;92.40;;;;;;5013165;28;20080;-83
2023/09/15 08:10:01;;;;;;;4.68;2.63;;;22.10;92.50;;;;;;5011651;28;20030;-83
2023/09/15 08:12:27;;;;;;;4.25;2.70;;;22.10;92.50;;;;;;5012935;28;20582;-83
2023/09/15 08:14:53;;;;;;;4.93;2.50;;;22.20;91.90;;;;;;5012222;28;20036;-81
2023/09/15 08:17:19;;;;;;;8.32;2.60;;;22.20;91.90;;;;;;5012632;28;20030;-84
2023/09/15 08:19:44;;;;;;;3.38;2.38;;;22.20;91.50;;;;;;5013396;28;20022;-83
2023/09/15 08:22:10;;;;;;;4.72;2.58;;;22.20;91.40;;;;;;5012555;28;20075;-83
2023/09/15 08:24:37;;;;;;;3.85;2.83;;;22.20;91.50;;;;;;5012692;28;20042;-83
2023/09/15 08:27:03;;;;;;;4.57;2.63;;;22.20;91.60;;;;;;5013172;28;20065;-80
2023/09/15 08:29:29;;;;;;;3.35;2.90;;;22.20;91.70;;;;;;5012924;28;20501;-81
2023/09/15 08:31:55;;;;;;;3.50;2.50;;;22.30;91.40;;;;;;5012749;28;20105;-84
2023/09/15 08:34:20;;;;;;;2.72;2.40;;;22.30;91.40;;;;;;5012663;28;20092;-83
2023/09/15 08:36:46;;;;;;;3.72;2.47;;;22.30;91.20;;;;;;5012776;28;20041;-82
2023/09/15 08:39:12;;;;;;;6.50;2.60;;;22.30;91.20;;;;;;5012780;28;20026;-83
2023/09/15 08:41:53;;;;;;;4.32;3.00;;;22.30;91.10;;;;;;5012929;28;20026;-83
2023/09/15 08:44:20;;;;;;;2.60;2.40;;;22.30;91.00;;;;;;5013172;28;20037;-82
2023/09/15 08:46:48;;;;;;;5.40;2.50;;;22.40;91.00;;;;;;5013134;28;20075;-86
2023/09/15 08:49:16;;;;;;;3.20;2.58;;;22.40;90.90;;;;;;5011807;28;20034;-77
2023/09/15 08:51:43;;;;;;;3.85;2.40;;;22.40;90.70;;;;;;5011362;28;20037;-77
2023/09/15 08:54:10;;;;;;;3.13;2.63;;;22.40;90.60;;;;;;5012677;28;20462;-77
2023/09/15 08:56:36;;;;;;;3.33;2.85;;;22.50;90.70;;;;;;5012490;28;20033;-78
2023/09/15 08:59:04;;;;;;;5.40;2.70;;;22.50;90.80;;;;;;5012881;28;20080;-75
2023/09/15 09:01:30;;;;;;;6.93;2.80;;;22.50;90.80;;;;;;5012904;28;20030;-76
2023/09/15 09:03:56;;;;;;;3.35;2.63;;;22.60;90.90;;;;;;5012755;28;20024;-76
2023/09/15 09:06:24;;;;;;;2.92;2.30;;;22.60;91.00;;;;;;5012296;28;20030;-76
2023/09/15 09:08:50;;;;;;;3.30;2.40;;;22.70;91.00;;;;;;5012557;28;20022;-75
2023/09/15 09:11:16;;;;;;;5.30;2.90;;;22.70;90.90;;;;;;5013080;28;20108;-74
2023/09/15 09:13:50;;;;;;;3.03;2.28;;;22.80;91.10;;;;;;5013214;28;20104;-74
2023/09/15 09:16:16;;;;;;;3.70;2.75;;;22.80;91.80;;;;;;5012509;28;20038;-74
2023/09/15 09:18:42;;;;;;;6.25;2.80;;;22.90;91.30;;;;;;5012088;28;20541;-75
2023/09/15 09:21:08;;;;;;;3.10;2.45;;;23.00;91.80;;;;;;5012356;28;20033;-74
2023/09/15 09:23:34;;;;;;;7.85;4.07;;;23.10;92.50;;;;;;5009599;28;20029;-74
2023/09/15 09:26:00;;;;;;;4.32;2.60;;;23.10;90.50;;;;;;5009405;28;20030;-75
2023/09/15 09:28:29;;;;;;;2.75;2.53;;;23.20;91.40;;;;;;5011322;28;20033;-74
2023/09/15 09:30:55;;;;;;;4.15;2.75;;;23.30;92.40;;;;;;5010046;28;20508;-74
2023/09/15 09:33:22;;;;;;;2.90;2.42;;;23.30;87.60;;;;;;5011272;28;20029;-74
2023/09/15 09:35:48;;;;;;;4.32;2.55;;;23.40;89.60;;;;;;5013689;28;20453;-75
2023/09/15 09:38:15;;;;;;;5.03;2.55;;;23.40;90.40;;;;;;5015235;28;20026;-74
2023/09/15 09:40:41;;;;;;;7.78;2.78;;;23.40;90.20;;;;;;5013196;28;20394;-74
2023/09/15 09:43:07;;;;;;;4.25;2.40;;;23.40;90.70;;;;;;5014935;28;20032;-74
2023/09/15 09:45:34;;;;;;;6.63;2.50;;;23.40;90.80;;;;;;5015742;28;20018;-74
2023/09/15 09:48:00;;;;;;;3.80;2.70;;;23.40;90.70;;;;;;5015558;28;20032;-74
2023/09/15 09:50:26;;;;;;;5.60;2.30;;;23.40;91.00;;;;;;5015401;28;20471;-74
2023/09/15 09:52:53;;;;;;;4.40;2.20;;;23.40;90.80;;;;;;5014958;28;20033;-73
2023/09/15 09:55:20;;;;;;;4.57;2.42;;;23.50;90.40;;;;;;5015022;28;20490;-74
2023/09/15 09:57:46;;;;;;;3.15;2.50;;;23.50;90.20;;;;;;5015259;28;20475;-74
2023/09/15 10:00:18;;;;;;;3.40;2.40;;;23.60;90.20;;;;;;5014997;28;20053;-74
2023/09/15 10:02:44;;;;;;;;;;;23.60;90.40;;;;;;4996127;28;20034;-74
2023/09/15 10:05:10;;;;;;;3.78;2.45;;;23.60;90.20;;;;;;4995879;28;19906;-74
2023/09/15 10:07:36;;;;;;;4.03;2.10;;;23.70;89.40;;;;;;4995895;28;20379;-74
2023/09/15 10:10:03;;;;;;;4.05;2.50;;;23.60;87.70;;;;;;4995759;28;20031;-74
2023/09/15 10:12:30;;;;;;;2.67;2.40;;;23.60;86.30;;;;;;4995451;28;20046;-74
2023/09/15 10:14:56;;;;;;;3.33;2.70;;;23.60;85.60;;;;;;4995481;28;20026;-74
2023/09/15 10:17:23;;;;;;;3.13;2.40;;;23.60;85.80;;;;;;4995662;28;20034;-74
2023/09/15 10:19:51;;;;;;;2.70;2.47;;;23.60;85.10;;;;;;4995484;28;20026;-73
2023/09/15 10:22:17;;;;;;;2.75;2.22;;;23.70;86.10;;;;;;4995227;28;20015;-74
2023/09/15 10:24:58;;;;;;;3.10;2.70;;;23.70;86.10;;;;;;4994163;28;20479;-74
2023/09/15 10:27:27;;;;;;;2.60;2.40;;;23.70;85.90;;;;;;4994922;28;20058;-74
2023/09/15 10:29:52;;;;;;;2.45;2.10;;;23.70;87.10;;;;;;4994960;28;20521;-74
2023/09/15 10:32:19;;;;;;;7.68;2.72;;;23.70;86.60;;;;;;4995079;28;20058;-74
2023/09/15 10:34:47;;;;;;;4.90;3.55;;;23.80;85.00;;;;;;4996230;28;20024;-74
2023/09/15 10:37:13;;;;;;;2.42;2.22;;;23.80;84.20;;;;;;4995050;28;20085;-75
2023/09/15 10:39:41;;;;;;;3.83;2.03;;;23.70;83.40;;;;;;4994785;28;20386;-74
2023/09/15 10:42:08;;;;;;;2.33;2.13;;;23.80;82.30;;;;;;4994607;28;20026;-74
2023/09/15 10:44:34;;;;;;;6.93;2.50;;;23.70;82.30;;;;;;4994555;28;20093;-75
2023/09/15 10:47:00;;;;;;;4.32;2.13;;;23.70;82.10;;;;;;4994834;28;20098;-75
2023/09/15 10:49:26;;;;;;;3.78;2.00;;;23.70;81.80;;;;;;4994751;28;20050;-76
2023/09/15 10:51:57;;;;;;;2.67;1.80;;;23.70;82.70;;;;;;4994820;28;20030;-75
2023/09/15 10:54:30;;;;;;;2.13;1.80;;;23.70;82.10;;;;;;4993964;28;20077;-76
2023/09/15 10:56:57;;;;;;;5.22;2.10;;;23.70;82.30;;;;;;4993405;28;20038;-75
2023/09/15 10:59:22;;;;;;;3.40;2.13;;;23.60;82.30;;;;;;4994427;28;20479;-75
2023/09/15 11:01:48;;;;;;;4.50;2.05;;;23.60;81.20;;;;;;4994688;28;20077;-75
2023/09/15 11:04:22;;;;;;;2.67;1.75;;;23.60;80.30;;;;;;4994689;28;20483;-75
2023/09/15 11:06:49;;;;;;;2.10;1.80;;;23.60;80.70;;;;;;4994680;28;20030;-74
2023/09/15 11:09:16;;;;;;;6.65;1.90;;;23.60;79.80;;;;;;4994045;28;20031;-75
2023/09/15 11:11:52;;;;;;;3.13;1.95;;;23.60;80.10;;;;;;4994172;28;20125;-75
2023/09/15 11:14:20;;;;;;;2.20;1.90;;;23.60;79.50;;;;;;4991121;28;20034;-75
2023/09/15 11:16:51;;;;;;;3.35;2.00;;;23.60;80.20;;;;;;4991407;28;20487;-76
2023/09/15 11:19:18;;;;;;;4.68;1.80;;;23.60;80.70;;;;;;4992165;28;20071;-81
2023/09/15 11:21:47;;;;;;;2.92;1.80;;;23.60;81.00;;;;;;4994159;28;20478;-82
2023/09/15 11:24:13;;;;;;;2.03;1.65;;;23.60;80.80;;;;;;4994329;28;20383;-81
2023/09/15 11:26:52;;;;;;;2.20;1.88;;;23.60;80.80;;;;;;4995130;28;20437;-80
2023/09/15 11:29:25;;;;;;;2.85;1.83;;;23.70;80.50;;;;;;4994049;28;20483;-81
2023/09/15 11:31:52;;;;;;;4.20;2.00;;;23.80;80.50;;;;;;4994208;28;20030;-80
2023/09/15 11:34:19;;;;;;;4.45;1.88;;;23.80;79.80;;;;;;4993718;28;20037;-81
2023/09/15 11:36:45;;;;;;;2.53;1.70;;;23.80;80.10;;;;;;4994101;28;20039;-83
2023/09/15 11:39:15;;;;;;;3.58;1.88;;;23.90;79.40;;;;;;4991497;28;20479;-83
2023/09/15 11:41:54;;;;;;;2.40;1.80;;;24.00;80.20;;;;;;4991405;28;20037;-83
2023/09/15 11:44:25;;;;;;;1.95;1.48;;;24.00;81.70;;;;;;4992024;28;20034;-80
2023/09/15 11:46:52;;;;;;;4.63;1.83;;;24.00;80.10;;;;;;4993839;28;20026;-82
2023/09/15 11:49:19;;;;;;;2.00;1.80;;;24.00;80.00;;;;;;4993710;28;20023;-80
2023/09/15 11:51:46;;;;;;;2.40;2.00;;;24.00;78.70;;;;;;4993643;28;20049;-81
2023/09/15 11:54:12;;;;;;;2.65;1.73;;;24.00;78.60;;;;;;4993446;28;20030;-80
2023/09/15 11:56:38;;;;;;;3.83;1.67;;;24.00;78.70;;;;;;4992546;28;20038;-79
2023/09/15 11:59:06;;;;;;;4.72;1.80;;;24.20;78.90;;;;;;4993515;28;20015;-80
2023/09/15 12:01:32;;;;;;;3.35;2.35;;;24.10;79.00;;;;;;4993475;28;20038;-81
2023/09/15 12:03:59;;;;;;;1.52;1.42;;;24.20;78.80;;;;;;4993580;28;20102;-80
2023/09/15 12:06:26;;;;;;;4.25;2.10;;;24.20;78.90;;;;;;4993716;28;20089;-81
2023/09/15 12:08:53;;;;;;;1.95;1.50;;;24.30;78.30;;;;;;4993633;28;20030;-81
2023/09/15 12:11:19;;;;;;;2.47;1.75;;;24.30;78.70;;;;;;4993188;28;20046;-81
2023/09/15 12:13:52;;;;;;;1.88;1.50;;;24.30;77.30;;;;;;4993501;28;20108;-80
2023/09/15 12:16:27;;;;;;;1.70;1.60;;;;;;;;;;4993488;28;20034;-80
2023/09/15 12:18:54;;;;;;;2.70;1.73;;;24.50;99.30;;;;;;4993471;28;20026;-84
2023/09/15 12:21:26;;;;;;;1.92;1.60;;;24.60;92.30;;;;;;4993402;28;20030;-79
2023/09/15 12:23:56;;;;;;;3.67;1.70;;;24.60;91.10;;;;;;4993374;28;20073;-80
2023/09/15 12:26:24;;;;;;;2.28;1.73;;;24.70;90.40;;;;;;4993668;28;20073;-84
2023/09/15 12:28:53;;;;;;;2.28;1.70;;;24.70;87.70;;;;;;4993347;28;20057;-83
2023/09/15 12:31:22;;;;;;;3.22;1.60;;;24.80;88.50;;;;;;4993220;28;20061;-83
2023/09/15 12:33:55;;;;;;;2.08;1.60;;;24.90;90.30;;;;;;4993279;28;20470;-82
2023/09/15 12:36:22;;;;;;;3.33;1.58;;;24.90;87.80;;;;;;4993215;28;20081;-80
2023/09/15 12:38:48;;;;;;;2.55;1.67;;;25.00;90.20;;;;;;4992778;28;20035;-82
2023/09/15 12:41:14;;;;;;;3.90;1.63;;;25.00;88.80;;;;;;4991844;28;20117;-82
2023/09/15 12:43:40;;;;;;;3.17;1.50;;;25.10;87.80;;;;;;4993333;28;20054;-81
2023/09/15 12:46:06;;;;;;;1.80;1.70;;;25.00;76.30;;;;;;4993003;28;20475;-81